Time;durP1;ratioP1;P1;durP2;ratioP2;P2;SDS_P1;SDS_P2;PMS_P1;PMS_P2;Temp;Humidity;BMP_temperature;BMP_pressure;BME280_temperature;BME280_humidity;BME280_pressure;Samples;Min_cycle;Max_cycle;Signal;HPM_P1;HPM_P2
2022/04/05 00:02:15;;;;;;;7.87;4.57;;;6.20;99.90;;;;;;5051693;28;20476;-45
2022/04/05 00:04:43;;;;;;;4.63;2.40;;;6.20;99.90;;;;;;5051849;28;20472;-45
2022/04/05 00:07:10;;;;;;;2.47;2.27;;;6.00;99.90;;;;;;5051819;28;20513;-45
2022/04/05 00:09:37;;;;;;;1.73;1.60;;;5.20;99.90;;;;;;5051286;28;20472;-47
2022/04/05 00:12:05;;;;;;;1.90;1.80;;;5.30;99.90;;;;;;5051399;28;20468;-46
2022/04/05 00:14:32;;;;;;;2.70;1.50;;;5.40;99.90;;;;;;5051761;28;20480;-45
2022/04/05 00:16:59;;;;;;;2.70;1.80;;;5.60;99.90;;;;;;5051315;28;20973;-45
2022/04/05 00:19:26;;;;;;;1.60;1.27;;;5.70;99.90;;;;;;5051356;28;20520;-44
2022/04/05 00:21:55;;;;;;;1.20;1.10;;;5.80;99.90;;;;;;5051566;28;20441;-44
2022/04/05 00:24:22;;;;;;;1.40;1.30;;;5.80;99.90;;;;;;5051491;28;20604;-45
2022/04/05 00:26:49;;;;;;;1.40;1.30;;;5.90;99.90;;;;;;5050971;28;20594;-45
2022/04/05 00:29:16;;;;;;;2.30;1.70;;;5.90;99.90;;;;;;5051010;28;20507;-45
2022/04/05 00:31:43;;;;;;;2.30;1.90;;;5.90;99.90;;;;;;5051399;28;20445;-48
2022/04/05 00:34:10;;;;;;;2.23;1.57;;;5.90;99.90;;;;;;5051186;28;20476;-47
2022/04/05 00:36:37;;;;;;;2.03;1.40;;;5.70;99.90;;;;;;5051008;28;20461;-45
2022/04/05 00:39:05;;;;;;;1.83;1.60;;;5.80;99.90;;;;;;5050946;28;20487;-45
2022/04/05 00:41:32;;;;;;;1.30;0.90;;;5.80;99.90;;;;;;5051157;28;20480;-45
2022/04/05 00:43:59;;;;;;;2.40;1.40;;;5.90;99.90;;;;;;5051522;28;21157;-45
2022/04/05 00:46:26;;;;;;;1.30;1.20;;;5.90;99.90;;;;;;5051123;28;20568;-47
2022/04/05 00:48:55;;;;;;;1.30;1.20;;;5.90;99.90;;;;;;5051002;28;20532;-45
2022/04/05 00:51:23;;;;;;;1.70;1.17;;;6.00;99.90;;;;;;5051392;28;20448;-45
2022/04/05 00:53:53;;;;;;;4.40;1.70;;;6.00;99.90;;;;;;5050930;28;20445;-47
2022/04/05 00:56:23;;;;;;;4.07;2.13;;;6.00;99.90;;;;;;5051156;28;20489;-45
2022/04/05 00:58:54;;;;;;;2.23;2.03;;;5.90;99.90;;;;;;5053529;28;20506;-45
2022/04/05 01:01:24;;;;;;;3.83;2.60;;;5.80;99.90;;;;;;5054555;28;20524;-45
2022/04/05 01:03:53;;;;;;;2.43;2.23;;;5.70;99.90;;;;;;5055052;28;20448;-46
2022/04/05 01:06:24;;;;;;;5.70;2.80;;;5.40;99.90;;;;;;5055051;28;20574;-45
2022/04/05 01:08:51;;;;;;;5.97;1.97;;;4.60;99.90;;;;;;5055081;28;20536;-45
2022/04/05 01:11:18;;;;;;;4.00;2.70;;;4.40;99.90;;;;;;5054784;28;20479;-46
2022/04/05 01:13:46;;;;;;;7.23;6.03;;;4.60;99.90;;;;;;5054973;28;20444;-45
2022/04/05 01:16:14;;;;;;;4.50;2.77;;;4.80;99.90;;;;;;5055278;28;20497;-42
2022/04/05 01:18:41;;;;;;;2.50;1.90;;;5.10;99.90;;;;;;5054524;28;20476;-42
2022/04/05 01:21:08;;;;;;;6.30;2.83;;;5.20;99.90;;;;;;5054522;28;20949;-45
2022/04/05 01:23:35;;;;;;;2.73;2.20;;;5.40;99.90;;;;;;5055091;28;20519;-43
2022/04/05 01:26:03;;;;;;;4.37;2.07;;;5.10;99.90;;;;;;5055777;28;20508;-44
2022/04/05 01:28:30;;;;;;;1.50;1.40;;;4.90;99.90;;;;;;5054741;28;20479;-46
2022/04/05 01:30:57;;;;;;;2.27;1.83;;;5.10;99.90;;;;;;5054085;28;20526;-42
2022/04/05 01:33:24;;;;;;;2.17;1.97;;;5.30;99.90;;;;;;5054423;28;20956;-43
2022/04/05 01:35:51;;;;;;;2.67;1.97;;;5.30;99.90;;;;;;5054226;28;20506;-43
2022/04/05 01:38:18;;;;;;;3.00;2.30;;;5.20;99.90;;;;;;5054432;28;20471;-42
2022/04/05 01:40:46;;;;;;;4.10;1.83;;;5.20;99.90;;;;;;5054305;28;20471;-42
2022/04/05 01:43:14;;;;;;;2.20;1.80;;;5.20;99.90;;;;;;5054320;28;20520;-42
2022/04/05 01:45:45;;;;;;;2.27;1.83;;;5.40;99.90;;;;;;5054176;28;20548;-42
2022/04/05 01:48:12;;;;;;;2.20;2.00;;;5.50;99.90;;;;;;5054082;28;20935;-43
2022/04/05 01:50:38;;;;;;;2.60;2.20;;;5.50;99.90;;;;;;5053882;28;20491;-42
2022/04/05 01:53:05;;;;;;;1.70;1.60;;;5.60;99.90;;;;;;5054357;28;20797;-42
2022/04/05 01:55:32;;;;;;;2.00;1.63;;;5.60;99.90;;;;;;5054276;28;20970;-42
2022/04/05 01:58:02;;;;;;;2.57;1.40;;;5.60;99.90;;;;;;5054237;28;20440;-42
2022/04/05 02:00:30;;;;;;;2.00;1.70;;;5.70;99.90;;;;;;5053579;28;20497;-43
2022/04/05 02:02:57;;;;;;;2.67;1.50;;;5.70;99.90;;;;;;5053877;28;20532;-42
2022/04/05 02:05:24;;;;;;;1.67;1.50;;;5.70;99.90;;;;;;5054006;28;20480;-42
2022/04/05 02:07:51;;;;;;;1.80;1.70;;;5.70;99.90;;;;;;5053643;28;20572;-43
2022/04/05 02:10:18;;;;;;;2.60;2.00;;;5.70;99.90;;;;;;5052490;28;21003;-42
2022/04/05 02:12:45;;;;;;;2.33;2.13;;;5.80;99.90;;;;;;5054176;28;20480;-42
2022/04/05 02:15:12;;;;;;;2.07;1.80;;;5.90;99.90;;;;;;5053728;28;20444;-43
2022/04/05 02:17:40;;;;;;;1.90;1.63;;;5.90;99.90;;;;;;5053975;28;20503;-42
2022/04/05 02:20:09;;;;;;;2.20;1.80;;;5.90;99.90;;;;;;5053428;28;20488;-42
2022/04/05 02:22:36;;;;;;;2.40;1.80;;;6.00;99.90;;;;;;5053647;28;20459;-43
2022/04/05 02:25:03;;;;;;;1.40;1.30;;;5.60;99.90;;;;;;5053861;28;20479;-42
2022/04/05 02:27:30;;;;;;;2.27;1.83;;;5.20;99.90;;;;;;5053203;28;20927;-43
2022/04/05 02:29:57;;;;;;;1.60;1.50;;;5.10;99.90;;;;;;5053423;28;20884;-42
2022/04/05 02:32:24;;;;;;;2.03;1.40;;;4.80;99.90;;;;;;5053330;28;20441;-45
2022/04/05 02:34:52;;;;;;;1.23;1.10;;;4.90;99.90;;;;;;5053538;28;20506;-42
2022/04/05 02:37:19;;;;;;;1.57;1.10;;;5.10;99.90;;;;;;5053073;28;20883;-42
2022/04/05 02:39:46;;;;;;;1.90;1.60;;;5.30;99.90;;;;;;5053852;28;20467;-42
2022/04/05 02:42:13;;;;;;;2.43;2.03;;;5.50;99.90;;;;;;5053143;28;20445;-42
2022/04/05 02:44:40;;;;;;;2.47;2.27;;;5.60;99.90;;;;;;5053439;28;20531;-43
2022/04/05 02:47:09;;;;;;;2.30;2.10;;;5.70;99.90;;;;;;5052873;28;20504;-45
2022/04/05 02:49:36;;;;;;;1.90;1.70;;;5.30;99.90;;;;;;5053374;28;20441;-43
2022/04/05 02:52:05;;;;;;;2.30;1.50;;;5.10;99.90;;;;;;5052968;28;20499;-43
2022/04/05 02:54:31;;;;;;;1.70;1.60;;;4.80;99.90;;;;;;5053193;28;20900;-46
2022/04/05 02:56:58;;;;;;;5.13;1.83;;;4.80;99.90;;;;;;5053141;28;20464;-42
2022/04/05 02:59:25;;;;;;;1.43;1.33;;;5.00;99.90;;;;;;5052816;28;20472;-42
2022/04/05 03:01:52;;;;;;;1.43;1.30;;;5.20;99.90;;;;;;5052576;28;20521;-42
2022/04/05 03:04:19;;;;;;;1.07;0.97;;;5.30;99.90;;;;;;5053310;28;20528;-44
2022/04/05 03:06:46;;;;;;;2.40;1.70;;;5.50;99.90;;;;;;5052751;28;20980;-44
2022/04/05 03:09:14;;;;;;;2.33;2.00;;;5.50;99.90;;;;;;5052767;28;20475;-43
2022/04/05 03:11:43;;;;;;;2.47;1.87;;;5.60;99.90;;;;;;5052799;28;20790;-43
2022/04/05 03:14:11;;;;;;;2.40;1.70;;;5.70;99.90;;;;;;5052908;28;20531;-43
2022/04/05 03:16:39;;;;;;;2.13;1.93;;;5.70;99.90;;;;;;5052627;28;20965;-42
2022/04/05 03:19:07;;;;;;;2.83;2.20;;;5.70;99.90;;;;;;5052614;28;20448;-43
2022/04/05 03:21:34;;;;;;;2.70;2.50;;;5.70;99.90;;;;;;5052215;28;20958;-42
2022/04/05 03:24:01;;;;;;;2.20;1.80;;;5.70;99.90;;;;;;5052397;28;20939;-44
2022/04/05 03:26:30;;;;;;;2.70;2.50;;;5.70;99.90;;;;;;5052114;28;20535;-42
2022/04/05 03:28:57;;;;;;;82.00;43.70;;;5.70;99.90;;;;;;5052288;28;20524;-42
2022/04/05 03:31:24;;;;;;;8.57;7.03;;;5.70;99.90;;;;;;5052151;28;20449;-45
2022/04/05 03:33:51;;;;;;;4.13;2.67;;;5.70;99.90;;;;;;5052440;28;20861;-42
2022/04/05 03:36:18;;;;;;;1.70;1.60;;;5.70;99.90;;;;;;5051848;28;20519;-42
2022/04/05 03:38:45;;;;;;;1.67;1.50;;;5.70;99.90;;;;;;5052292;28;20480;-43
2022/04/05 03:41:11;;;;;;;2.03;1.50;;;5.70;99.90;;;;;;5051932;28;20518;-42
2022/04/05 03:43:40;;;;;;;1.87;1.20;;;5.70;99.90;;;;;;5052161;28;20448;-45
2022/04/05 03:46:07;;;;;;;1.50;1.40;;;5.70;99.90;;;;;;5051903;28;20480;-45
2022/04/05 03:48:34;;;;;;;1.77;1.50;;;5.70;99.90;;;;;;5052235;28;20516;-42
2022/04/05 03:51:08;;;;;;;3.27;2.10;;;5.50;99.90;;;;;;5051622;28;20507;-43
2022/04/05 03:53:34;;;;;;;3.60;2.80;;;5.30;99.90;;;;;;5052078;28;20938;-42
2022/04/05 03:56:01;;;;;;;5.00;3.00;;;5.10;99.90;;;;;;5051961;28;20555;-43
2022/04/05 03:58:28;;;;;;;3.00;2.60;;;5.30;99.90;;;;;;5052095;28;20476;-43
2022/04/05 04:00:56;;;;;;;2.93;2.70;;;5.40;99.90;;;;;;5051283;28;20869;-42
2022/04/05 04:03:23;;;;;;;2.87;2.10;;;5.50;99.90;;;;;;5051661;28;20444;-42
2022/04/05 04:05:50;;;;;;;5.17;2.63;;;5.50;99.90;;;;;;5051627;28;20465;-43
2022/04/05 04:08:18;;;;;;;5.10;2.70;;;5.40;99.90;;;;;;5050832;28;20515;-43
2022/04/05 04:10:47;;;;;;;3.40;2.40;;;5.50;99.90;;;;;;5050563;28;20452;-43
2022/04/05 04:13:14;;;;;;;3.53;2.93;;;5.40;99.90;;;;;;5051272;28;20452;-42
2022/04/05 04:15:41;;;;;;;4.50;3.53;;;5.30;99.90;;;;;;5051491;28;20986;-42
2022/04/05 04:18:09;;;;;;;4.47;3.97;;;5.40;99.90;;;;;;5051264;28;20445;-42
2022/04/05 04:20:38;;;;;;;3.90;3.50;;;5.50;99.90;;;;;;5051733;28;20486;-42
2022/04/05 04:23:05;;;;;;;5.73;3.50;;;5.30;99.90;;;;;;5051602;28;20445;-45
2022/04/05 04:25:32;;;;;;;3.00;2.80;;;4.80;99.90;;;;;;5051003;28;20532;-42
2022/04/05 04:27:59;;;;;;;2.87;1.93;;;4.60;99.90;;;;;;5051309;28;20473;-42
2022/04/05 04:30:26;;;;;;;2.90;1.93;;;4.50;99.90;;;;;;5050961;28;21003;-42
2022/04/05 04:32:53;;;;;;;8.57;7.70;;;4.50;99.90;;;;;;5050789;28;20556;-42
2022/04/05 04:35:22;;;;;;;11.00;4.83;;;4.60;99.90;;;;;;5051208;28;20456;-42
2022/04/05 04:37:49;;;;;;;151.47;95.17;;;4.70;99.90;;;;;;5050981;28;20484;-42
2022/04/05 04:40:16;;;;;;;29.77;20.60;;;4.90;99.90;;;;;;5050732;28;20486;-44
2022/04/05 04:42:43;;;;;;;7.13;5.27;;;5.10;99.90;;;;;;5051616;28;20517;-45
2022/04/05 04:45:11;;;;;;;6.13;4.03;;;5.30;99.90;;;;;;5051106;28;20449;-47
2022/04/05 04:47:38;;;;;;;3.70;3.40;;;5.50;99.90;;;;;;5051217;28;20563;-43
2022/04/05 04:50:07;;;;;;;3.73;3.43;;;5.60;99.90;;;;;;5050758;28;20446;-43
2022/04/05 04:52:36;;;;;;;9.47;3.50;;;5.70;99.90;;;;;;5050893;28;20441;-43
2022/04/05 04:55:03;;;;;;;3.53;3.23;;;5.70;99.90;;;;;;5051455;28;20579;-43
2022/04/05 04:57:30;;;;;;;3.60;3.30;;;5.60;99.90;;;;;;5051049;28;20500;-43
2022/04/05 04:59:57;;;;;;;5.80;4.20;;;5.10;99.90;;;;;;5050848;28;20961;-43
2022/04/05 05:02:24;;;;;;;3.93;3.53;;;4.80;99.90;;;;;;5050793;28;20922;-43
2022/04/05 05:04:51;;;;;;;4.70;4.13;;;5.00;99.90;;;;;;5050841;28;20438;-43
2022/04/05 05:07:18;;;;;;;4.50;3.70;;;5.20;99.90;;;;;;5050544;28;20555;-43
2022/04/05 05:09:46;;;;;;;4.10;3.30;;;5.30;99.90;;;;;;5050945;28;20532;-42
2022/04/05 05:12:13;;;;;;;5.43;3.57;;;5.50;99.90;;;;;;5050734;28;20959;-43
2022/04/05 05:14:40;;;;;;;3.23;2.93;;;5.30;99.90;;;;;;5051176;28;20460;-43
2022/04/05 05:17:07;;;;;;;4.63;4.03;;;5.00;99.90;;;;;;5050625;28;20553;-45
2022/04/05 05:19:34;;;;;;;5.40;3.80;;;5.10;99.90;;;;;;5050304;28;20807;-48
2022/04/05 05:22:01;;;;;;;5.50;4.00;;;5.30;99.90;;;;;;5051156;28;20528;-44
2022/04/05 05:24:28;;;;;;;9.93;4.30;;;5.50;99.90;;;;;;5050646;28;20532;-43
2022/04/05 05:26:56;;;;;;;4.43;4.03;;;5.50;99.90;;;;;;5050684;28;20529;-44
2022/04/05 05:29:23;;;;;;;5.10;4.33;;;5.70;99.90;;;;;;5050380;28;20527;-44
2022/04/05 05:31:50;;;;;;;6.43;4.07;;;5.70;99.90;;;;;;5050817;28;20930;-43
2022/04/05 05:34:22;;;;;;;4.90;4.20;;;5.80;99.90;;;;;;5050638;28;20558;-49
2022/04/05 05:36:49;;;;;;;5.60;4.40;;;5.90;99.90;;;;;;5050614;28;20465;-43
2022/04/05 05:39:16;;;;;;;5.90;4.30;;;6.00;99.90;;;;;;5050229;28;20497;-43
2022/04/05 05:41:44;;;;;;;6.83;6.23;;;6.00;99.90;;;;;;5050792;28;20480;-44
2022/04/05 05:44:12;;;;;;;6.93;5.63;;;5.90;99.90;;;;;;5052056;28;20883;-43
2022/04/05 05:46:39;;;;;;;8.47;6.00;;;6.00;99.90;;;;;;5054135;28;20489;-44
2022/04/05 05:49:06;;;;;;;9.10;7.20;;;6.10;99.90;;;;;;5054102;28;20563;-43
2022/04/05 05:51:33;;;;;;;7.07;6.17;;;6.10;99.90;;;;;;5054429;28;20524;-44
2022/04/05 05:54:00;;;;;;;7.63;6.00;;;6.20;99.90;;;;;;5054322;28;20558;-44
2022/04/05 05:56:27;;;;;;;8.10;6.80;;;6.20;99.90;;;;;;5054138;28;20804;-43
2022/04/05 05:58:54;;;;;;;8.93;5.50;;;6.30;99.90;;;;;;5053941;28;20486;-45
2022/04/05 06:01:24;;;;;;;6.27;5.50;;;6.40;99.90;;;;;;5053619;28;20444;-43
2022/04/05 06:03:51;;;;;;;7.57;6.23;;;6.50;99.90;;;;;;5054248;28;20856;-43
2022/04/05 06:06:18;;;;;;;15.70;12.60;;;6.50;99.90;;;;;;5054171;28;20465;-43
2022/04/05 06:08:45;;;;;;;4.93;4.47;;;6.60;99.90;;;;;;5054077;28;20579;-43
2022/04/05 06:11:13;;;;;;;5.40;4.60;;;6.60;99.90;;;;;;5053747;28;20437;-44
2022/04/05 06:13:40;;;;;;;5.00;4.43;;;6.60;99.90;;;;;;5053870;28;21009;-46
2022/04/05 06:16:08;;;;;;;3.83;3.53;;;6.60;99.90;;;;;;5053712;28;20483;-44
2022/04/05 06:18:37;;;;;;;3.70;2.80;;;6.60;99.90;;;;;;5053696;28;20946;-43
2022/04/05 06:21:04;;;;;;;2.47;2.27;;;6.70;99.90;;;;;;5053437;28;20456;-43
2022/04/05 06:23:31;;;;;;;3.60;3.27;;;6.70;99.90;;;;;;5053805;28;20441;-44
2022/04/05 06:25:58;;;;;;;5.53;3.60;;;6.80;99.90;;;;;;5053475;28;20560;-44
2022/04/05 06:28:25;;;;;;;4.10;3.77;;;6.90;99.90;;;;;;5053525;28;20572;-47
2022/04/05 06:30:52;;;;;;;3.27;2.97;;;6.90;99.90;;;;;;5053564;28;20522;-44
2022/04/05 06:33:21;;;;;;;4.43;3.70;;;7.00;99.90;;;;;;5053636;28;20533;-43
2022/04/05 06:35:52;;;;;;;5.53;3.37;;;7.00;99.90;;;;;;5053388;28;20469;-44
2022/04/05 06:38:19;;;;;;;6.70;4.90;;;7.10;99.90;;;;;;5053359;28;20469;-43
2022/04/05 06:40:47;;;;;;;6.30;3.70;;;7.20;99.90;;;;;;5053417;28;20533;-44
2022/04/05 06:43:15;;;;;;;5.60;4.87;;;7.30;99.90;;;;;;5053395;28;20536;-44
2022/04/05 06:45:43;;;;;;;7.73;3.63;;;7.30;99.90;;;;;;5053458;28;20468;-44
2022/04/05 06:48:10;;;;;;;4.33;3.93;;;7.40;99.90;;;;;;5053158;28;20564;-46
2022/04/05 06:50:38;;;;;;;2.67;2.20;;;7.40;99.90;;;;;;5052827;28;20496;-43
2022/04/05 06:53:08;;;;;;;3.87;2.70;;;7.40;99.90;;;;;;5053356;28;20536;-44
2022/04/05 06:55:35;;;;;;;2.50;2.27;;;7.50;99.90;;;;;;5052570;28;20465;-44
2022/04/05 06:58:03;;;;;;;4.50;2.60;;;7.50;99.90;;;;;;5053136;28;20472;-45
2022/04/05 07:00:30;;;;;;;3.57;3.27;;;7.50;99.90;;;;;;5052443;28;20442;-44
2022/04/05 07:02:58;;;;;;;4.40;2.70;;;7.60;99.90;;;;;;5052906;28;21000;-44
2022/04/05 07:05:25;;;;;;;3.93;2.93;;;7.60;99.90;;;;;;5052998;28;20441;-44
2022/04/05 07:07:52;;;;;;;3.50;2.70;;;7.70;99.90;;;;;;5052727;28;20991;-44
2022/04/05 07:10:21;;;;;;;2.33;1.90;;;7.70;99.90;;;;;;5052819;28;20446;-43
2022/04/05 07:12:49;;;;;;;2.90;2.23;;;7.80;99.90;;;;;;5052814;28;20966;-43
2022/04/05 07:15:16;;;;;;;2.27;2.07;;;7.90;99.90;;;;;;5052482;28;20500;-46
2022/04/05 07:17:44;;;;;;;2.40;1.80;;;7.90;99.90;;;;;;5052593;28;20982;-44
2022/04/05 07:20:11;;;;;;;1.87;1.57;;;7.90;99.90;;;;;;5052438;28;20491;-46
2022/04/05 07:22:45;;;;;;;2.53;1.63;;;8.00;99.90;;;;;;5052484;28;20445;-46
2022/04/05 07:25:12;;;;;;;3.17;2.87;;;8.10;99.90;;;;;;5052526;28;21137;-44
2022/04/05 07:27:44;;;;;;;2.80;2.60;;;8.20;99.90;;;;;;5122617;22;20537;-44
2022/04/05 07:30:12;;;;;;;3.10;2.33;;;8.40;99.90;;;;;;5071621;28;20476;-43
2022/04/05 07:32:39;;;;;;;22.77;5.67;;;8.50;99.90;;;;;;5072593;28;20479;-46
2022/04/05 07:35:07;;;;;;;7.40;3.63;;;8.40;99.90;;;;;;5072421;28;20440;-41
2022/04/05 07:37:35;;;;;;;4.50;3.00;;;8.40;99.90;;;;;;5071877;28;20462;-43
2022/04/05 07:40:03;;;;;;;8.17;3.53;;;8.20;99.90;;;;;;5072080;28;20559;-44
2022/04/05 07:42:30;;;;;;;3.97;2.97;;;8.00;99.90;;;;;;5072212;28;20945;-45
2022/04/05 07:44:59;;;;;;;5.40;2.90;;;8.00;99.90;;;;;;5072170;28;20781;-44
2022/04/05 07:47:26;;;;;;;4.63;2.30;;;8.10;99.90;;;;;;5071117;28;20460;-48
2022/04/05 07:49:52;;;;;;;4.93;2.53;;;8.20;99.90;;;;;;5071910;28;20884;-44
2022/04/05 07:52:19;;;;;;;3.57;1.53;;;8.30;99.90;;;;;;5071747;28;20485;-45
2022/04/05 07:54:46;;;;;;;2.60;1.93;;;8.30;99.90;;;;;;5071923;28;20440;-45
2022/04/05 07:57:13;;;;;;;207.93;29.65;;;8.40;99.90;;;;;;5071267;28;20954;-44
2022/04/05 07:59:41;;;;;;;4.03;2.03;;;9.00;99.90;;;;;;5071658;28;20194;-50
2022/04/05 08:02:10;;;;;;;1.80;1.70;;;9.10;99.90;;;;;;5071594;28;20441;-44
2022/04/05 08:04:37;;;;;;;2.07;1.30;;;9.30;99.90;;;;;;5071452;28;20444;-46
2022/04/05 08:07:06;;;;;;;8.93;2.30;;;9.40;99.90;;;;;;5071035;28;20460;-44
2022/04/05 08:09:33;;;;;;;8.83;2.03;;;9.50;99.90;;;;;;5071040;28;20476;-44
2022/04/05 08:12:00;;;;;;;3.20;2.10;;;9.60;99.90;;;;;;5071440;28;20979;-45
2022/04/05 08:14:29;;;;;;;35.53;6.37;;;9.70;99.90;;;;;;5071363;28;20444;-45
2022/04/05 08:16:57;;;;;;;2.67;2.10;;;9.70;99.90;;;;;;5071270;28;20461;-47
2022/04/05 08:19:26;;;;;;;2.90;1.90;;;9.60;99.90;;;;;;5071027;28;20440;-46
2022/04/05 08:21:53;;;;;;;1.70;1.60;;;9.50;99.90;;;;;;5071831;28;20488;-44
2022/04/05 08:24:20;;;;;;;4.20;2.10;;;9.50;99.90;;;;;;5071097;28;20511;-49
2022/04/05 08:26:47;;;;;;;8.27;3.73;;;9.80;99.90;;;;;;5071249;28;20887;-46
2022/04/05 08:29:14;;;;;;;2.43;1.60;;;9.90;99.90;;;;;;5070699;28;20472;-48
2022/04/05 08:31:41;;;;;;;2.87;2.60;;;10.00;99.90;;;;;;5071159;28;20953;-44
2022/04/05 08:34:08;;;;;;;31.50;18.90;;;10.10;99.90;;;;;;5071779;28;20860;-44
2022/04/05 08:36:37;;;;;;;3.60;2.40;;;10.40;99.90;;;;;;5071214;28;20461;-45
2022/04/05 08:39:04;;;;;;;2.70;1.50;;;10.60;99.90;;;;;;5071084;28;20440;-45
2022/04/05 08:41:36;;;;;;;2.03;1.80;;;10.70;99.90;;;;;;5071345;28;20627;-49
2022/04/05 08:44:03;;;;;;;3.50;2.07;;;10.70;99.90;;;;;;5071284;28;20440;-44
2022/04/05 08:46:34;;;;;;;2.60;1.87;;;10.60;99.90;;;;;;5070572;28;20549;-45
2022/04/05 08:49:01;;;;;;;2.93;2.17;;;10.50;99.90;;;;;;5070963;28;20563;-44
2022/04/05 08:51:29;;;;;;;1.97;1.60;;;10.50;99.90;;;;;;5071329;28;20789;-45
2022/04/05 08:53:58;;;;;;;2.30;1.33;;;10.60;99.90;;;;;;5071039;28;20437;-46
2022/04/05 08:56:27;;;;;;;5.43;1.83;;;10.70;99.30;;;;;;5074112;28;20463;-45
2022/04/05 08:58:55;;;;;;;2.90;2.10;;;10.70;99.10;;;;;;5070100;28;20435;-48
2022/04/05 09:01:22;;;;;;;3.53;2.00;;;10.60;99.60;;;;;;5071021;28;20816;-45
2022/04/05 09:03:49;;;;;;;2.83;2.50;;;10.50;99.90;;;;;;5070248;28;20531;-46
2022/04/05 09:06:27;;;;;;;2.33;1.93;;;10.60;99.50;;;;;;5071092;28;20494;-45
2022/04/05 09:09:06;;;;;;;2.70;2.00;;;10.40;99.20;;;;;;5069595;28;20483;-45
2022/04/05 09:11:33;;;;;;;2.70;1.63;;;10.40;99.00;;;;;;5071200;28;20440;-45
2022/04/05 09:14:02;;;;;;;4.70;1.70;;;10.50;98.10;;;;;;5069816;28;20509;-44
2022/04/05 09:16:31;;;;;;;4.03;1.60;;;10.40;98.50;;;;;;5070715;28;21007;-47
2022/04/05 09:18:59;;;;;;;1.97;1.73;;;10.40;97.80;;;;;;5070938;28;20953;-44
2022/04/05 09:21:26;;;;;;;1.70;1.50;;;10.30;98.30;;;;;;5073501;28;20844;-45
2022/04/05 09:24:08;;;;;;;1.87;1.53;;;10.30;98.40;;;;;;5073485;28;20527;-49
2022/04/05 09:26:44;;;;;;;2.73;2.50;;;10.40;98.60;;;;;;5074550;28;20472;-44
2022/04/05 09:29:11;;;;;;;1.90;1.60;;;10.40;98.20;;;;;;5073949;28;21050;-45
2022/04/05 09:31:49;;;;;;;1.63;1.53;;;10.60;97.20;;;;;;5074996;28;20494;-48
2022/04/05 09:34:21;;;;;;;3.20;1.80;;;10.70;96.70;;;;;;5074781;28;20455;-45
2022/04/05 09:36:50;;;;;;;2.53;1.80;;;10.50;97.30;;;;;;5074536;28;20495;-45
2022/04/05 09:39:20;;;;;;;2.10;1.60;;;10.60;97.30;;;;;;5074314;28;20432;-47
2022/04/05 09:41:49;;;;;;;1.93;1.53;;;10.80;96.10;;;;;;5074127;28;20486;-46
2022/04/05 09:44:27;;;;;;;2.20;1.60;;;10.80;96.70;;;;;;5074708;28;20440;-45
2022/04/05 09:47:03;;;;;;;2.30;1.80;;;10.80;96.40;;;;;;5074044;28;20460;-45
2022/04/05 09:49:35;;;;;;;1.87;1.60;;;11.00;97.80;;;;;;5074009;28;20480;-45
2022/04/05 09:52:03;;;;;;;3.20;2.20;;;11.10;96.90;;;;;;5074101;28;20444;-44
2022/04/05 09:54:35;;;;;;;2.10;1.80;;;11.20;97.30;;;;;;5074688;28;20491;-45
2022/04/05 09:57:06;;;;;;;2.57;2.00;;;11.30;96.10;;;;;;5073971;28;20469;-45
2022/04/05 09:59:41;;;;;;;1.80;1.60;;;11.40;94.60;;;;;;5072532;28;20445;-44
2022/04/05 10:02:13;;;;;;;2.03;1.83;;;11.50;95.70;;;;;;5073752;28;20565;-50
2022/04/05 10:04:58;;;;;;;2.23;1.47;;;11.80;96.40;;;;;;5073436;28;20532;-47
2022/04/05 10:07:28;;;;;;;2.83;1.27;;;11.90;94.30;;;;;;5070326;28;21047;-45
2022/04/05 10:09:58;;;;;;;10.03;3.50;;;11.90;93.70;;;;;;5075824;28;20475;-45
2022/04/05 10:12:25;;;;;;;2.13;1.93;;;11.90;95.10;;;;;;5073748;28;20527;-46
2022/04/05 10:14:53;;;;;;;2.97;2.07;;;11.90;95.30;;;;;;5073912;28;20986;-45
2022/04/05 10:17:21;;;;;;;2.07;1.87;;;12.10;94.50;;;;;;5072512;28;20463;-45
2022/04/05 10:19:50;;;;;;;2.30;1.73;;;12.20;95.30;;;;;;5073216;28;20811;-45
2022/04/05 10:22:18;;;;;;;2.60;1.30;;;12.20;95.20;;;;;;5072717;28;20441;-48
2022/04/05 10:24:49;;;;;;;1.70;1.50;;;12.00;94.20;;;;;;5073436;28;20468;-45
2022/04/05 10:27:18;;;;;;;2.30;2.10;;;12.00;94.40;;;;;;5072481;28;20727;-44
2022/04/05 10:29:46;;;;;;;2.23;2.03;;;12.00;94.50;;;;;;5072393;28;20566;-45
2022/04/05 10:32:24;;;;;;;3.07;1.73;;;12.00;95.70;;;;;;5070775;28;20469;-45
2022/04/05 10:34:58;;;;;;;2.23;1.50;;;12.00;94.60;;;;;;5071389;28;20440;-47
2022/04/05 10:37:31;;;;;;;2.50;1.57;;;12.00;94.40;;;;;;5071644;28;20495;-46
2022/04/05 10:40:17;;;;;;;3.90;1.80;;;12.00;94.30;;;;;;5070553;28;20468;-45
2022/04/05 10:42:47;;;;;;;1.43;1.33;;;12.10;94.90;;;;;;5070925;28;20532;-44
2022/04/05 10:45:16;;;;;;;2.53;1.53;;;12.20;94.10;;;;;;5069922;28;20432;-44
2022/04/05 10:48:12;;;;;;;1.50;1.40;;;12.30;94.00;;;;;;5071556;28;20465;-44
2022/04/05 10:50:40;;;;;;;1.20;1.10;;;12.20;93.40;;;;;;5071947;28;20468;-49
2022/04/05 10:53:21;;;;;;;4.90;2.00;;;12.30;93.00;;;;;;5071760;28;20536;-48
2022/04/05 10:56:16;;;;;;;2.07;1.50;;;12.20;94.40;;;;;;5071414;28;20444;-45
2022/04/05 10:59:28;;;;;;;1.60;1.50;;;12.00;94.40;;;;;;5070818;28;21276;-45
2022/04/05 11:01:57;;;;;;;1.97;1.50;;;12.00;93.90;;;;;;5071284;28;20506;-46
2022/04/05 11:04:32;;;;;;;3.50;1.80;;;12.00;93.80;;;;;;5071674;28;20517;-48
2022/04/05 11:07:12;;;;;;;2.00;1.77;;;12.00;94.40;;;;;;5071494;28;20636;-46
2022/04/05 11:09:46;;;;;;;1.87;1.27;;;12.20;94.90;;;;;;5051213;28;20479;-45
2022/04/05 11:12:23;;;;;;;1.80;1.40;;;12.20;94.30;;;;;;5066397;28;20463;-45
2022/04/05 11:14:53;;;;;;;3.30;1.67;;;12.50;94.20;;;;;;5071401;28;20483;-45
2022/04/05 11:17:23;;;;;;;2.27;1.50;;;12.80;96.40;;;;;;5071311;28;20555;-45
2022/04/05 11:19:52;;;;;;;2.17;1.70;;;13.00;95.50;;;;;;5070329;28;20949;-46
2022/04/05 11:22:32;;;;;;;1.97;1.50;;;13.00;93.80;;;;;;5070824;28;20710;-44
2022/04/05 11:25:03;;;;;;;3.50;2.00;;;13.00;93.80;;;;;;5071381;28;20498;-44
2022/04/05 11:27:32;;;;;;;1.60;1.50;;;12.90;93.10;;;;;;5071629;28;22226;-46
2022/04/05 11:30:44;;;;;;;3.00;1.90;;;12.80;93.40;;;;;;5070996;28;20889;-46
2022/04/05 11:33:21;;;;;;;2.13;1.63;;;12.80;94.10;;;;;;5035435;28;20494;-44
2022/04/05 11:35:50;;;;;;;2.60;1.90;;;12.70;93.10;;;;;;5072034;28;20509;-48
2022/04/05 11:38:28;;;;;;;1.43;1.30;;;12.70;93.00;;;;;;5072111;28;20479;-45
2022/04/05 11:41:00;;;;;;;6.20;1.60;;;12.70;92.60;;;;;;5072235;28;20445;-47
2022/04/05 11:43:28;;;;;;;3.10;1.40;;;12.60;92.80;;;;;;5070699;28;20582;-44
2022/04/05 11:45:57;;;;;;;1.27;1.17;;;12.60;92.20;;;;;;5070958;28;20988;-41
2022/04/05 11:48:27;;;;;;;1.80;1.50;;;12.60;92.00;;;;;;5070645;28;20972;-46
2022/04/05 11:50:56;;;;;;;1.80;1.57;;;12.70;93.40;;;;;;5071636;28;20947;-46
2022/04/05 11:53:25;;;;;;;3.13;2.20;;;12.70;94.10;;;;;;5072417;28;20527;-45
2022/04/05 11:56:06;;;;;;;2.87;2.10;;;12.90;93.80;;;;;;5071809;28;20790;-45
2022/04/05 11:58:35;;;;;;;2.33;2.10;;;13.20;92.70;;;;;;5071762;28;20565;-45
2022/04/05 12:01:04;;;;;;;2.20;1.20;;;13.20;94.70;;;;;;5071182;28;20498;-46
2022/04/05 12:03:44;;;;;;;2.87;1.60;;;13.20;93.50;;;;;;5069724;28;20440;-46
2022/04/05 12:06:12;;;;;;;2.60;1.53;;;13.30;92.70;;;;;;5070609;28;20464;-47
2022/04/05 12:08:39;;;;;;;2.33;1.60;;;13.30;93.70;;;;;;5070349;28;20535;-45
2022/04/05 12:11:07;;;;;;;1.53;1.30;;;13.40;92.40;;;;;;5070640;28;20561;-47
2022/04/05 12:13:35;;;;;;;1.80;1.70;;;13.40;92.40;;;;;;5070478;28;20449;-46
2022/04/05 12:16:05;;;;;;;1.53;1.00;;;13.60;91.90;;;;;;5070542;28;20441;-45
2022/04/05 12:18:33;;;;;;;2.07;1.53;;;13.60;91.90;;;;;;5071680;28;20445;-44
2022/04/05 12:21:02;;;;;;;2.07;1.50;;;13.60;91.90;;;;;;5071754;28;20494;-44
2022/04/05 12:23:33;;;;;;;1.97;1.70;;;13.70;92.40;;;;;;5071822;28;20444;-45
2022/04/05 12:26:20;;;;;;;2.40;1.40;;;13.70;92.30;;;;;;5071456;28;20487;-45
2022/04/05 12:28:49;;;;;;;3.03;1.73;;;13.80;91.10;;;;;;5070445;28;20445;-45
2022/04/05 12:31:18;;;;;;;2.47;1.60;;;13.80;91.50;;;;;;5069683;28;20482;-47
2022/04/05 12:34:01;;;;;;;2.20;1.50;;;13.80;93.10;;;;;;5070201;28;20441;-44
2022/04/05 12:36:34;;;;;;;3.57;1.63;;;13.70;94.40;;;;;;5070526;28;20499;-45
2022/04/05 12:39:03;;;;;;;1.10;1.00;;;13.70;94.00;;;;;;5070052;28;20494;-44
2022/04/05 12:41:30;;;;;;;2.43;1.30;;;13.70;92.10;;;;;;5070823;28;20502;-48
2022/04/05 12:44:05;;;;;;;2.30;1.37;;;13.70;93.60;;;;;;5071869;28;20482;-44
2022/04/05 12:46:38;;;;;;;6.53;1.87;;;13.80;94.30;;;;;;5070802;28;21036;-47
2022/04/05 12:49:16;;;;;;;2.50;1.93;;;14.10;94.40;;;;;;5071109;28;20447;-47
2022/04/05 12:51:43;;;;;;;1.83;1.63;;;14.20;94.20;;;;;;5071256;28;20909;-45
2022/04/05 12:54:28;;;;;;;1.80;1.50;;;14.30;93.70;;;;;;5070511;28;20523;-45
2022/04/05 12:57:16;;;;;;;1.43;1.33;;;14.30;92.90;;;;;;5070722;28;20873;-49
2022/04/05 12:59:43;;;;;;;1.53;1.33;;;14.30;93.90;;;;;;5070878;28;20527;-45
2022/04/05 13:02:17;;;;;;;2.13;1.60;;;14.30;92.80;;;;;;5070625;28;20539;-46
2022/04/05 13:04:46;;;;;;;3.27;1.77;;;14.30;94.50;;;;;;5070661;28;20472;-46